• Join FlightAware (Why Join?)
  • Login
  • US Flag 
02:19PM EDT


 

Airport Tracker/Info


-or-


 

Live Flight TrackerFlight Track Log ✈ NKS612 ✈ 08-May-2013 ✈ KLAS - KMSP

Flight Track Log - Related Links

Times and Time Zones

All times are in EDT time to prevent confusion due to time zone crossing. See the NKS612 flight status page for this flight to view local times or setup timezone preferences in your user account.

Time Position Orientation Groundspeed Altitude Reporting Facility
EDT Latitude Longitude Course Direction KTS MPH feet Rate Location/Type
03:24AM 36.0760 -115.1820 270° West 167 192 3,600  Level FlightAware
03:24AM 36.0760 -115.2070 270° West 197 227 4,100 900 Climbing FlightAware
03:25AM 36.0760 -115.2320 270° West 233 268 4,300 1,980 Climbing FlightAware
03:25AM 36.0790 -115.2680 276° West 242 278 5,600 3,120 Climbing FlightAware
03:25AM 36.0880 -115.2810 311° West 238 274 6,400 3,360 Climbing FlightAware
03:26AM 36.1060 -115.2900 338° Northwest 240 276 7,300 3,000 Climbing FlightAware
03:26AM 36.1330 -115.2960 350° North 248 285 8,400 2,820 Climbing FlightAware
03:27AM 36.1610 -115.2780 27° Northeast 252 290 9,900 2,520 Climbing FlightAware
03:27AM 36.1850 -115.2240 61° Northeast 285 328 11,400 1,680 Climbing FlightAware
03:28AM 36.1970 -115.1730 74° East 327 376 11,900 1,260 Climbing FlightAware
03:28AM 36.1970 -115.0920 90° East 364 419 12,900 1,860 Climbing FlightAware
03:29AM 36.1980 -114.9960 89° East 378 435 14,600 2,280 Climbing FlightAware
03:30AM 36.1990 -114.9120 89° East 381 438 16,200 2,220 Climbing FlightAware
03:30AM 36.2000 -114.8200 89° East 394 453 17,600 1,920 Climbing FlightAware
03:31AM 36.2000 -114.7180 90° East 407 468 19,000 1,800 Climbing FlightAware
03:32AM 36.1990 -114.6250 91° East 416 479 20,200 1,860 Climbing FlightAware
03:33AM 36.1970 -114.5140 91° East 423 487 21,700 1,740 Climbing FlightAware
03:33AM 36.1960 -114.4210 91° East 430 495 22,700 1,560 Climbing FlightAware
03:34AM 36.1950 -114.3170 91° East 438 504 23,800 1,500 Climbing FlightAware
03:34AM 36.2060 -114.2440 79° East 436 502 24,500 1,320 Climbing FlightAware
03:35AM 36.2610 -114.1600 51° Northeast 436 502 25,500 1,380 Climbing FlightAware
03:36AM 36.3140 -114.0820 50° Northeast 443 510 26,500 1,380 Climbing FlightAware
03:37AM 36.3600 -114.0000 55° Northeast 448 516 27,400 1,020 Climbing FlightAware
03:37AM 36.4170 -113.9010 54° Northeast 461 531 28,000 1,080 Climbing FlightAware
03:38AM 36.4660 -113.8150 55° Northeast 461 531 29,000 1,260 Climbing FlightAware
03:39AM 36.5200 -113.7190 55° Northeast 464 534 29,800 960 Climbing FlightAware
03:39AM 36.5700 -113.6320 54° Northeast 470 541 30,400 900 Climbing FlightAware
03:40AM 36.6210 -113.5410 55° Northeast 477 549 31,000 1,200 Climbing FlightAware
03:41AM 36.6790 -113.4380 55° Northeast 472 543 32,100 1,080 Climbing FlightAware
03:41AM 36.7290 -113.3490 55° Northeast 478 550 32,600 900 Climbing FlightAware
03:42AM 36.7850 -113.2490 55° Northeast 479 551 33,400 1,020 Climbing FlightAware
03:43AM 36.8350 -113.1590 55° Northeast 477 549 34,100 1,020 Climbing FlightAware
03:44AM 36.8850 -113.0700 55° Northeast 475 547 34,800 900 Climbing FlightAware
03:44AM 36.9410 -112.9690 55° Northeast 477 549 35,400 660 Climbing FlightAware
03:45AM 36.9920 -112.8780 55° Northeast 482 555 35,800 660 Climbing FlightAware
03:46AM 37.0430 -112.7840 56° Northeast 483 556 36,300 660 Climbing FlightAware
03:46AM 37.0980 -112.6850 55° Northeast 484 557 36,800 480 Climbing FlightAware
03:47AM 37.1520 -112.5870 55° Northeast 480 552 37,000 120 Climbing FlightAware
03:48AM 37.2170 -112.4690 55° Northeast 480 552 37,000  Level FlightAware
03:49AM 37.2600 -112.3910 55° Northeast 480 552 37,000  Level FlightAware
03:49AM 37.3030 -112.3140 55° Northeast 480 552 37,000  Level FlightAware
03:50AM 37.3570 -112.2160 55° Northeast 480 552 37,000  Level FlightAware
03:51AM 37.4010 -112.1390 54° Northeast 480 552 37,000  Level FlightAware
03:51AM 37.4440 -112.0610 55° Northeast 480 552 37,000  Level FlightAware
03:52AM 37.4870 -111.9830 55° Northeast 480 552 37,000  Level FlightAware
03:53AM 37.5310 -111.9050 55° Northeast 480 552 37,000  Level FlightAware
03:54AM 37.5850 -111.8070 55° Northeast 480 552 37,000  Level FlightAware
03:54AM 37.6280 -111.7290 55° Northeast 480 552 37,000  Level FlightAware
03:55AM 37.6710 -111.6510 55° Northeast 480 552 37,000  Level FlightAware
03:56AM 37.7150 -111.5730 54° Northeast 480 552 37,000  Level FlightAware
03:56AM 37.7580 -111.4950 55° Northeast 480 552 37,000  Level FlightAware
03:57AM 37.8120 -111.3970 55° Northeast 480 552 37,000  Level FlightAware
03:59AM 38.0400 -110.9250 58° Northeast 466 536 37,000  Level FlightAware
04:00AM 38.0880 -110.8340 56° Northeast 467 537 37,000  Level FlightAware
04:01AM 38.1410 -110.7320 57° Northeast 467 537 37,000  Level FlightAware
04:01AM 38.1860 -110.6450 57° Northeast 469 540 37,000  Level FlightAware
04:02AM 38.2360 -110.5480 57° Northeast 470 541 37,000  Level FlightAware
04:03AM 38.2830 -110.4570 57° Northeast 469 540 37,000  Level FlightAware
04:03AM 38.3360 -110.3540 57° Northeast 469 540 37,000  Level FlightAware
04:04AM 38.3910 -110.2460 57° Northeast 467 537 37,000  Level FlightAware
04:05AM 38.4380 -110.1550 57° Northeast 465 535 37,000  Level FlightAware
04:05AM 38.4840 -110.0640 57° Northeast 465 535 37,000  Level FlightAware
04:06AM 38.5320 -109.9700 57° Northeast 466 536 37,000  Level FlightAware
04:07AM 38.5840 -109.8660 57° Northeast 468 539 37,000  Level FlightAware
04:07AM 38.6220 -109.7900 57° Northeast 468 539 37,000  Level FlightAware
04:08AM 38.6830 -109.6680 57° Northeast 466 536 37,000  Level FlightAware
04:09AM 38.7300 -109.5760 57° Northeast 465 535 37,000  Level FlightAware
04:10AM 38.7820 -109.4710 58° Northeast 464 534 37,000  Level FlightAware
04:10AM 38.8280 -109.3800 57° Northeast 463 533 37,000  Level FlightAware
04:11AM 38.8740 -109.2850 58° Northeast 466 536 37,000  Level FlightAware
04:12AM 38.9250 -109.1820 58° Northeast 467 537 37,000  Level FlightAware
04:12AM 38.9710 -109.0890 58° Northeast 468 539 37,000  Level FlightAware
04:13AM 39.0230 -108.9840 57° Northeast 467 537 37,000  Level FlightAware
04:14AM 39.0700 -108.8880 58° Northeast 467 537 37,000  Level FlightAware
04:15AM 39.1160 -108.7940 58° Northeast 465 535 37,000  Level FlightAware
04:15AM 39.1670 -108.6890 58° Northeast 463 533 37,000  Level FlightAware
04:16AM 39.2120 -108.5980 57° Northeast 462 532 37,000  Level FlightAware
04:17AM 39.2620 -108.4930 58° Northeast 461 531 37,000  Level FlightAware
04:17AM 39.3090 -108.3970 58° Northeast 459 528 37,000  Level FlightAware
04:18AM 39.3540 -108.3040 58° Northeast 457 526 37,000  Level FlightAware
04:19AM 39.4030 -108.2010 58° Northeast 455 524 37,000  Level FlightAware
04:20AM 39.4530 -108.0970 58° Northeast 453 521 37,000  Level FlightAware
04:20AM 39.4960 -108.0050 59° Northeast 449 517 37,000  Level FlightAware
04:21AM 39.5390 -107.9150 58° Northeast 449 517 37,000  Level FlightAware
04:22AM 39.5890 -107.8100 58° Northeast 449 517 37,000  Level FlightAware
04:22AM 39.6320 -107.7180 59° Northeast 453 521 37,000  Level FlightAware
04:23AM 39.6730 -107.6310 59° Northeast 456 525 37,000  Level FlightAware
04:24AM 39.7190 -107.5330 59° Northeast 458 527 37,000  Level FlightAware
04:24AM 39.7633 -107.4390 58° Northeast 459 528 37,000  Level FlightAware ADS-B
04:25AM 39.7973 -107.3670 58° Northeast 459 528 37,000  Level FlightAware ADS-B
04:25AM 39.8301 -107.2970 59° Northeast 458 527 37,000  Level FlightAware ADS-B
04:26AM 39.8659 -107.2200 59° Northeast 458 527 37,000  Level FlightAware ADS-B
04:26AM 39.9055 -107.1340 59° Northeast 457 526 37,000  Level FlightAware ADS-B
04:27AM 39.9493 -107.0390 59° Northeast 457 526 37,000  Level FlightAware ADS-B
04:28AM 39.9826 -106.9670 59° Northeast 456 525 37,000  Level FlightAware ADS-B
04:28AM 40.0150 -106.8970 59° Northeast 456 525 37,000  Level FlightAware
04:28AM 40.0374 -106.8470 60° Northeast 456 525 37,000  Level FlightAware ADS-B
04:29AM 40.0816 -106.7510 59° Northeast 455 524 37,000  Level FlightAware ADS-B
04:30AM 40.1185 -106.6710 59° Northeast 454 522 37,000  Level FlightAware ADS-B
04:30AM 40.1510 -106.5990 59° Northeast 454 522 37,000  Level FlightAware ADS-B
04:31AM 40.1859 -106.5220 59° Northeast 453 521 37,000  Level FlightAware ADS-B
04:31AM 40.2196 -106.4480 59° Northeast 453 521 37,000  Level FlightAware ADS-B
04:32AM 40.2730 -106.3300 59° Northeast 454 522 37,000  Level FlightAware ADS-B
04:33AM 40.3300 -106.2020 60° Northeast 458 527 37,000  Level FlightAware
04:33AM 40.3372 -106.1870 58° Northeast 457 526 37,000  Level FlightAware ADS-B
04:34AM 40.3730 -106.1080 59° Northeast 462 532 37,000  Level FlightAware
04:34AM 40.3821 -106.0870 60° Northeast 457 526 37,000  Level FlightAware ADS-B
04:34AM 40.4255 -105.9890 60° Northeast 463 533 37,000  Level FlightAware ADS-B
04:35AM 40.4704 -105.8890 59° Northeast 468 539 37,000  Level FlightAware ADS-B
04:36AM 40.5150 -105.7890 60° Northeast 470 541 37,000 60 Level FlightAware
04:37AM 40.5580 -105.6910 60° Northeast 468 539 37,100 120 Climbing FlightAware
04:37AM 40.5683 -105.6680 59° Northeast 468 539 37,100  Level FlightAware ADS-B
04:37AM 40.6020 -105.5930 59° Northeast 465 535 37,100  Level FlightAware
04:37AM 40.6146 -105.5640 60° Northeast 468 539 37,100  Level FlightAware ADS-B
04:38AM 40.6534 -105.4760 60° Northeast 460 529 37,100 -120 Level FlightAware ADS-B
04:39AM 40.6886 -105.3950 60° Northeast 457 526 37,000 -120 Descending FlightAware ADS-B
04:39AM 40.7297 -105.3000 60° Northeast 455 524 37,000  Level FlightAware ADS-B
04:40AM 40.7627 -105.2240 60° Northeast 455 524 37,000  Level FlightAware ADS-B
04:40AM 40.7949 -105.1510 60° Northeast 453 521 37,000  Level FlightAware ADS-B
04:41AM 40.8270 -105.0770 60° Northeast 452 520 37,000  Level FlightAware ADS-B
04:41AM 40.8581 -105.0050 60° Northeast 452 520 37,000  Level FlightAware ADS-B
04:42AM 40.8899 -104.9310 60° Northeast 452 520 37,000  Level FlightAware ADS-B
04:42AM 40.9218 -104.8570 60° Northeast 453 521 37,000  Level FlightAware ADS-B
04:43AM 40.9555 -104.7780 61° Northeast 453 521 37,000  Level FlightAware ADS-B
04:43AM 40.9864 -104.7060 60° Northeast 452 520 37,000  Level FlightAware ADS-B
04:44AM 41.0175 -104.6330 61° Northeast 452 520 37,000  Level FlightAware ADS-B
04:44AM 41.0522 -104.5520 60° Northeast 452 520 37,000  Level FlightAware ADS-B
04:45AM 41.0835 -104.4780 61° Northeast 451 519 37,000  Level FlightAware ADS-B
04:45AM 41.1152 -104.4030 61° Northeast 450 518 37,000  Level FlightAware ADS-B
04:46AM 41.1454 -104.3320 61° Northeast 448 516 37,000  Level FlightAware ADS-B
04:46AM 41.1770 -104.2580 60° Northeast 447 514 37,000  Level FlightAware ADS-B
04:47AM 41.2071 -104.1850 61° Northeast 445 512 37,000  Level FlightAware ADS-B
04:47AM 41.2371 -104.1140 61° Northeast 444 511 37,000  Level FlightAware ADS-B
04:48AM 41.2669 -104.0420 61° Northeast 441 507 37,000  Level FlightAware ADS-B
04:48AM 41.2966 -103.9710 61° Northeast 440 506 37,000  Level FlightAware ADS-B
04:49AM 41.3266 -103.8990 61° Northeast 441 507 37,000  Level FlightAware ADS-B
04:49AM 41.3566 -103.8280 61° Northeast 442 509 37,000  Level FlightAware ADS-B
04:50AM 41.3898 -103.7480 61° Northeast 441 507 37,000  Level FlightAware ADS-B
04:51AM 41.4198 -103.6760 61° Northeast 442 509 37,000  Level FlightAware ADS-B
04:51AM 41.4566 -103.5860 61° Northeast 442 509 37,000  Level FlightAware ADS-B
04:52AM 41.4861 -103.5140 61° Northeast 442 509 37,000  Level FlightAware ADS-B
04:52AM 41.5155 -103.4420 61° Northeast 443 510 37,000  Level FlightAware ADS-B
04:53AM 41.5456 -103.3690 61° Northeast 445 512 37,000  Level FlightAware ADS-B
04:53AM 41.5754 -103.2960 61° Northeast 447 514 37,000  Level FlightAware ADS-B
04:54AM 41.6049 -103.2230 62° Northeast 448 516 37,000  Level FlightAware ADS-B
04:54AM 41.6344 -103.1500 62° Northeast 450 518 37,000  Level FlightAware ADS-B
04:55AM 41.6654 -103.0740 61° Northeast 450 518 37,000 60 Level FlightAware ADS-B
04:55AM 41.6953 -103.0000 62° Northeast 448 516 37,100  Climbing FlightAware ADS-B
04:56AM 41.7251 -102.9260 62° Northeast 447 514 37,000 -120 Descending FlightAware ADS-B
04:56AM 41.7548 -102.8530 61° Northeast 450 518 37,000  Level FlightAware ADS-B
04:57AM 41.7920 -102.7610 62° Northeast 450 518 37,000  Level FlightAware
04:57AM 41.7979 -102.7450 64° Northeast 451 519 37,000  Level FlightAware ADS-B
04:57AM 41.8276 -102.6710 62° Northeast 452 520 37,000  Level FlightAware ADS-B
04:58AM 41.8573 -102.5970 62° Northeast 450 518 37,000  Level FlightAware ADS-B
04:58AM 41.8867 -102.5230 62° Northeast 449 517 37,000  Level FlightAware ADS-B
04:59AM 41.9160 -102.4490 62° Northeast 448 516 37,000  Level FlightAware ADS-B
04:59AM 41.9453 -102.3750 62° Northeast 447 514 37,000  Level FlightAware ADS-B
05:00AM 41.9755 -102.2980 62° Northeast 447 514 37,000  Level FlightAware ADS-B
05:00AM 42.0047 -102.2240 62° Northeast 447 514 37,000  Level FlightAware ADS-B
05:01AM 42.0338 -102.1500 62° Northeast 448 516 37,000  Level FlightAware ADS-B
05:01AM 42.0631 -102.0750 62° Northeast 447 514 37,000  Level FlightAware ADS-B
05:02AM 42.0920 -102.0010 62° Northeast 448 516 37,000  Level FlightAware ADS-B
05:02AM 42.1212 -101.9260 62° Northeast 448 516 37,000  Level FlightAware ADS-B
05:03AM 42.1501 -101.8520 62° Northeast 449 517 37,000  Level FlightAware ADS-B
05:04AM 42.1815 -101.7710 62° Northeast 450 518 37,000  Level FlightAware ADS-B
05:04AM 42.2184 -101.6750 63° Northeast 450 518 37,000  Level FlightAware ADS-B
05:05AM 42.2487 -101.5960 63° Northeast 450 518 37,000  Level FlightAware ADS-B
05:05AM 42.2775 -101.5220 62° Northeast 450 518 37,000  Level FlightAware ADS-B
05:06AM 42.3097 -101.4380 63° Northeast 449 517 37,000  Level FlightAware ADS-B
05:06AM 42.3269 -101.3922 63° Northeast 450 518 37,000  Level Minneapolis Center
05:07AM 42.3603 -101.3056 62° Northeast 451 519 37,000  Level Denver Center
05:08AM 42.4153 -101.1608 63° Northeast 451 519 37,000  Level Denver Center
05:09AM 42.4683 -101.0208 63° Northeast 443 510 37,000  Level Denver Center
05:10AM 42.5311 -100.8514 63° Northeast 447 514 37,000  Level Denver Center
05:11AM 42.5856 -100.7053 63° Northeast 453 521 37,000  Level Denver Center
05:12AM 42.6400 -100.5603 63° Northeast 451 519 37,000  Level Denver Center
05:13AM 42.6944 -100.4131 63° Northeast 455 524 37,000  Level Denver Center
05:14AM 42.7486 -100.2642 64° Northeast 456 525 37,000  Level Denver Center
05:15AM 42.8050 -100.1086 64° Northeast 459 528 37,000  Level Denver Center
05:16AM 42.8617 -99.9558 63° Northeast 455 524 37,000  Level Denver Center
05:16AM 42.8958 -99.8639 63° Northeast 457 526 37,000  Level Minneapolis Center
05:17AM 42.9514 -99.7089 64° Northeast 456 525 37,000  Level Minneapolis Center
05:18AM 43.0097 -99.5475 64° Northeast 466 536 37,000  Level Minneapolis Center
05:19AM 43.0664 -99.3881 64° Northeast 466 536 37,000  Level Minneapolis Center
05:20AM 43.1228 -99.2281 64° Northeast 465 535 37,000  Level Minneapolis Center
05:21AM 43.1775 -99.0700 65° Northeast 466 536 37,000  Level Minneapolis Center
05:22AM 43.2336 -98.9125 64° Northeast 467 537 37,000  Level Minneapolis Center
05:23AM 43.2900 -98.7519 64° Northeast 468 539 37,000  Level Minneapolis Center
05:29AM 43.6250 -97.7530 64° Northeast 484 557 37,000  Level FlightAware
05:30AM 43.6660 -97.6220 67° East 471 542 37,000  Level FlightAware
05:31AM 43.7020 -97.5090 66° East 475 547 37,000  Level FlightAware
05:31AM 43.7410 -97.3840 67° East 477 549 37,000  Level FlightAware
05:32AM 43.7770 -97.2700 66° East 478 550 37,000  Level FlightAware
05:33AM 43.8110 -97.1610 67° East 478 550 37,000  Level FlightAware
05:33AM 43.8500 -97.0340 67° East 477 549 37,000  Level FlightAware
05:34AM 43.8860 -96.9200 66° East 477 549 37,000  Level FlightAware
05:35AM 43.9170 -96.8160 67° East 476 548 37,000  Level FlightAware
05:36AM 43.9570 -96.6850 67° East 474 545 37,000  Level FlightAware
05:36AM 43.9920 -96.5710 67° East 473 544 37,000  Level FlightAware
05:37AM 44.0310 -96.4450 67° East 472 543 37,000  Level FlightAware
05:38AM 44.0650 -96.3310 67° East 472 543 37,000  Level FlightAware
05:38AM 44.0980 -96.2220 67° East 472 543 37,000  Level FlightAware
05:39AM 44.1360 -96.0940 67° East 484 557 37,000 -540 Level FlightAware
05:40AM 44.1700 -95.9800 67° East 488 562 36,300 -2,220 Descending FlightAware
05:40AM 44.2100 -95.8460 67° East 496 571 33,900 -2,760 Descending FlightAware
05:41AM 44.2440 -95.7280 68° East 490 564 32,400 -2,220 Descending FlightAware
05:42AM 44.2780 -95.6140 67° East 483 556 31,000 -2,160 Descending FlightAware
05:43AM 44.3150 -95.4860 68° East 476 548 29,400 -2,220 Descending FlightAware
05:43AM 44.3490 -95.3720 67° East 469 540 27,900 -2,280 Descending FlightAware
05:44AM 44.3850 -95.2460 68° East 463 533 26,200 -2,220 Descending FlightAware
05:45AM 44.4170 -95.1360 68° East 450 518 24,800 -2,220 Descending FlightAware
05:45AM 44.4470 -95.0290 69° East 439 505 23,300 -2,220 Descending FlightAware
05:46AM 44.4800 -94.9160 68° East 429 494 21,700 -2,160 Descending FlightAware
05:47AM 44.5090 -94.8120 69° East 419 482 20,300 -2,160 Descending FlightAware
05:47AM 44.5410 -94.6990 68° East 408 470 18,700 -2,220 Descending FlightAware
05:48AM 44.5690 -94.6010 68° East 399 459 17,200 -2,220 Descending FlightAware
05:49AM 44.5960 -94.5060 68° East 388 447 15,800 -1,920 Descending FlightAware
05:50AM 44.6240 -94.4050 69° East 372 428 14,500 -1,800 Descending FlightAware
05:50AM 44.6490 -94.3150 69° East 366 421 13,300 -1,920 Descending FlightAware
05:51AM 44.6720 -94.2300 69° East 359 413 12,000 -1,860 Descending FlightAware
05:52AM 44.6990 -94.1310 69° East 343 395 10,700 -1,380 Descending FlightAware
05:52AM 44.7180 -94.0470 72° East 333 383 10,100 -720 Descending FlightAware
05:53AM 44.7310 -93.9880 73° East 334 384 9,900 -240 Descending FlightAware
05:53AM 44.7450 -93.9240 73° East 333 383 9,900 60 Level FlightAware
05:54AM 44.7560 -93.8730 73° East 332 382 10,000  Climbing FlightAware
05:54AM 44.7700 -93.8120 72° East 333 383 9,900  Descending FlightAware
05:54AM 44.7780 -93.7790 71° East 333 383 10,000  Climbing FlightAware
05:55AM 44.7880 -93.7310 74° East 334 384 9,900  Descending FlightAware
05:55AM 44.7960 -93.6950 73° East 333 383 10,000  Climbing FlightAware
05:56AM 44.8100 -93.6350 72° East 314 361 9,900 -360 Descending FlightAware
05:56AM 44.8200 -93.5890 73° East 297 342 9,700 -1,140 Descending FlightAware
05:57AM 44.8310 -93.5360 74° East 295 339 8,900 -1,560 Descending FlightAware
05:57AM 44.8420 -93.4880 72° East 289 333 8,300 -1,020 Descending FlightAware
05:57AM 44.8540 -93.4340 73° East 287 330 8,000 -540 Descending FlightAware
05:58AM 44.8580 -93.4080 78° East 282 325 7,900  Descending FlightAware
05:58AM 44.8490 -93.3670 107° East 249 287 8,000 60 Climbing FlightAware
05:59AM 44.8320 -93.3260 120° Southeast 235 270 8,000 -120 Level FlightAware
05:59AM 44.8200 -93.2940 118° Southeast 233 268 7,900 -780 Descending FlightAware
05:59AM 44.8120 -93.2720 117° Southeast 231 266 7,500 -1,740 Descending FlightAware
06:00AM 44.7960 -93.2330 120° Southeast 230 265 6,600 -1,680 Descending FlightAware
06:00AM 44.7850 -93.2030 117° Southeast 228 262 6,000 -1,680 Descending FlightAware
06:01AM 44.7690 -93.1630 119° Southeast 226 260 5,100 -1,800 Descending FlightAware
06:01AM 44.7560 -93.1300 119° Southeast 225 259 4,400 -1,500 Descending FlightAware
06:01AM 44.7450 -93.1040 121° Southeast 220 253 4,000 -840 Descending FlightAware
06:02AM 44.7390 -93.0750 106° East 215 247 3,800 -660 Descending FlightAware
06:02AM 44.7540 -93.0400 59° Northeast 204 235 3,400 -720 Descending FlightAware
06:03AM 44.7680 -93.0350 14° North 195 224 3,300 -600 Descending FlightAware
06:03AM 44.7870 -93.0300 11° North 189 217 3,000 -360 Descending FlightAware
06:04AM 44.8080 -93.0520 323° Northwest 181 208 3,000 -300 Level FlightAware
06:04AM 44.8220 -93.0820 303° West 178 205 2,700 -780 Descending FlightAware
06:04AM 44.8320 -93.1060 300° West 175 201 2,300 -900 Descending FlightAware
06:05AM 44.8450 -93.1350 302° West 166 191 1,900 -840 Descending FlightAware
06:05AM 44.8560 -93.1600 302° West 138 159 1,500 -780 Descending FlightAware
06:06AM 44.8640 -93.1790 301° West 133 153 1,200 -780 Descending FlightAware
06:06AM 44.8680 -93.1900 297° West 135 155 1,000 -840 Descending FlightAware